D/T METAR WX W/DIR W/SPE G/SPE TEMP DEWP
24/04/19 21:20 EGNM 242020Z 23007KT 180V270 9999 FEW015 SCT035 10/07 Q0994 SW (230°) 8.1mph 10°C 7°C
24/04/19 20:50 EGNM 241950Z 22010KT 180V270 9999 FEW015 SCT035 10/07 Q0994 SW (220°) 11.5mph 10°C 7°C
24/04/19 20:20 EGNM 241920Z 22011KT 180V260 9999 SCT012 SCT023 10/07 Q0993 SW (220°) 12.7mph 10°C 7°C
24/04/19 19:50 EGNM 241850Z 18010KT 150V220 9999 FEW012 SCT025 12/10 Q0992 S (180°) 11.5mph 12°C 10°C
24/04/19 19:20 EGNM 241820Z 16011KT 130V200 9999 FEW010 SCT038 13/10 Q0992 SSE (160°) 12.7mph 13°C 10°C
24/04/19 18:50 EGNM 241750Z 19009KT 170V250 6000 -SHRA FEW009 FEW018CB SCT024 13/11 Q0991 -SHRA S (190°) 10.4mph 13°C 11°C
24/04/19 18:20 EGNM 241720Z 11010KT 090V150 4000 -SHRA FEW017CB SCT023 14/13 Q0991 -SHRA ESE (110°) 11.5mph 14°C 13°C
24/04/19 17:50 EGNM 241650Z 09012KT 010V160 4000 -SHRA FEW017CB SCT023 14/13 Q0990 -SHRA E (90°) 13.8mph 14°C 13°C
24/04/19 17:20 EGNM 241620Z 09010KT 010V170 6000 -SHRA SCT040 16/13 Q0990 -SHRA E (90°) 11.5mph 16°C 13°C
24/04/19 16:50 EGNM 241550Z 07009KT 010V160 8000 SCT040 16/12 Q0990 ENE (70°) 10.4mph 16°C 12°C
24/04/19 16:20 EGNM 241520Z 09011KT 010V110 9999 SCT032 16/12 Q0991 E (90°) 12.7mph 16°C 12°C
24/04/19 15:50 EGNM 241450Z 12008KT 090V160 9999 FEW028 17/11 Q0991 ESE (120°) 9.2mph 17°C 11°C
24/04/19 15:20 EGNM 241420Z 10008KT 070V160 9999 FEW028 17/11 Q0991 E (100°) 9.2mph 17°C 11°C
24/04/19 14:50 EGNM 241350Z 11008KT 010V170 9000 FEW028 17/11 Q0992 ESE (110°) 9.2mph 17°C 11°C
24/04/19 14:20 EGNM 241320Z 10006KT 010V160 9000 FEW020 17/10 Q0992 E (100°) 6.9mph 17°C 10°C
24/04/19 13:50 EGNM 241250Z 07008KT 010V150 9000 FEW011 SCT018 16/11 Q0992 ENE (70°) 9.2mph 16°C 11°C
24/04/19 13:20 EGNM 241220Z 08008KT 020V160 9000 FEW011 SCT018 15/10 Q0992 E (80°) 9.2mph 15°C 10°C
24/04/19 12:50 EGNM 241150Z 08009KT 010V110 9000 FEW009 SCT013 14/10 Q0993 E (80°) 10.4mph 14°C 10°C
24/04/19 12:20 EGNM 241120Z 07011KT 010V110 7000 FEW008 SCT012 13/10 Q0992 ENE (70°) 12.7mph 13°C 10°C
24/04/19 11:50 EGNM 241050Z 06009KT 020V100 7000 SCT007 BKN009 12/09 Q0993 ENE (60°) 10.4mph 12°C 9°C
24/04/19 11:20 EGNM 241020Z 06009KT 030V110 6000 SCT005 BKN006 11/09 Q0993 ENE (60°) 10.4mph 11°C 9°C
24/04/19 10:50 EGNM 240950Z 05009KT 020V090 4500 HZ SCT005 BKN006 10/09 Q0993 HZ NE (50°) 10.4mph 10°C 9°C
24/04/19 09:50 EGNM 240850Z 06009KT 360V100 3000 HZ SCT003 BKN004 09/08 Q0993 HZ ENE (60°) 10.4mph 9°C 8°C
24/04/19 09:20 EGNM 240820Z 06010KT 030V100 2500 HZ BKN002 08/08 Q0993 HZ ENE (60°) 11.5mph 8°C 8°C
24/04/19 08:50 EGNM 240750Z 05010KT 1800 BR BKN002 08/07 Q0993 BR NE (50°) 11.5mph 8°C 7°C
24/04/19 08:20 EGNM 240720Z 05010KT 020V090 1400 R14/P1500 BR BKN002 07/07 Q0994 BR NE (50°) 11.5mph 7°C 7°C
24/04/19 07:50 EGNM 240650Z 05009KT 020V080 1100 R14/P1500 BR BKN002 07/07 Q0994 BR NE (50°) 10.4mph 7°C 7°C
24/04/19 07:20 EGNM 240620Z 05009KT 020V090 1100 R14/P1500 BR BKN002 07/07 Q0994 BR NE (50°) 10.4mph 7°C 7°C
24/04/19 06:50 EGNM 240550Z 04009KT 010V080 0800 R14/P1500 FG VV/// 07/06 Q0994 FG NE (40°) 10.4mph 7°C 6°C
24/04/19 06:20 EGNM 240520Z 05008KT 020V090 0800 R14/1300 FG VV/// 06/06 Q0994 FG NE (50°) 9.2mph 6°C 6°C
24/04/19 05:50 EGNM 240450Z 04008KT 0800 R14/P1500 FG VV/// 06/06 Q0994 FG NE (40°) 9.2mph 6°C 6°C
24/04/19 05:20 EGNM 240420Z 04008KT 010V070 0800 FG VV/// 06/06 Q0994 FG NE (40°) 9.2mph 6°C 6°C
24/04/19 04:20 EGNM 240320Z 03008KT 1600 BR BKN005 06/06 Q0995 BR NNE (30°) 9.2mph 6°C 6°C
24/04/19 03:20 EGNM 240220Z 03006KT 360V060 3500 BR BKN005 06/06 Q0995 BR NNE (30°) 6.9mph 6°C 6°C
24/04/19 02:50 EGNM 240150Z 02009KT 3500 BR BKN005 06/06 Q0996 BR NNE (20°) 10.4mph 6°C 6°C
24/04/19 02:20 EGNM 240120Z 01007KT 6000 SCT005 06/05 Q0996 N (10°) 8.1mph 6°C 5°C
24/04/19 01:50 EGNM 240050Z 03008KT 360V080 CAVOK 06/05 Q0996 NNE (30°) 9.2mph 6°C 5°C
24/04/19 01:20 EGNM 240020Z 03007KT 360V060 CAVOK 07/05 Q0997 NNE (30°) 8.1mph 7°C 5°C
24/04/19 00:20 EGNM 232320Z 05006KT 020V080 CAVOK 07/06 Q0997 NE (50°) 6.9mph 7°C 6°C
23/04/19 23:50 EGNM 232250Z 04009KT CAVOK 07/06 Q0997 NE (40°) 10.4mph 7°C 6°C
23/04/19 22:50 EGNM 232150Z 05006KT 010V080 CAVOK 08/06 Q0998 NE (50°) 6.9mph 8°C 6°C
23/04/19 22:20 EGNM 232120Z 05006KT CAVOK 08/07 Q0998 NE (50°) 6.9mph 8°C 7°C
23/04/19 21:50 EGNM 232050Z 05007KT 020V090 CAVOK 09/07 Q0999 NE (50°) 8.1mph 9°C 7°C
23/04/19 21:20 EGNM 232020Z 05008KT CAVOK 09/07 Q0999 NE (50°) 9.2mph 9°C 7°C
23/04/19 20:50 EGNM 231950Z 05008KT 020V090 CAVOK 10/07 Q0999 NE (50°) 9.2mph 10°C 7°C
23/04/19 20:20 EGNM 231920Z 06007KT 010V100 CAVOK 10/06 Q0999 ENE (60°) 8.1mph 10°C 6°C
23/04/19 19:50 EGNM 231850Z 06007KT 020V110 CAVOK 11/06 Q0999 ENE (60°) 8.1mph 11°C 6°C
23/04/19 19:20 EGNM 231820Z 06008KT 010V100 CAVOK 12/06 Q0999 ENE (60°) 9.2mph 12°C 6°C
23/04/19 18:20 EGNM 231720Z 08010KT 010V160 CAVOK 13/06 Q0999 E (80°) 11.5mph 13°C 6°C
23/04/19 17:50 EGNM 231650Z 09012KT 010V160 CAVOK 14/05 Q0999 E (90°) 13.8mph 14°C 5°C
23/04/19 17:20 EGNM 231620Z 07011KT 010V160 CAVOK 15/07 Q0999 ENE (70°) 12.7mph 15°C 7°C
23/04/19 16:20 EGNM 231520Z 08011KT 010V160 CAVOK 15/06 Q0999 E (80°) 12.7mph 15°C 6°C
23/04/19 15:50 EGNM 231450Z 10013KT 010V160 CAVOK 15/06 Q0999 E (100°) 15.0mph 15°C 6°C
23/04/19 15:20 EGNM 231420Z 09011KT 010V160 CAVOK 16/07 Q0999 E (90°) 12.7mph 16°C 7°C
23/04/19 14:50 EGNM 231350Z 07010KT 020V120 CAVOK 15/07 Q0999 ENE (70°) 11.5mph 15°C 7°C
23/04/19 14:20 EGNM 231320Z 08010KT 010V160 CAVOK 15/07 Q1000 E (80°) 11.5mph 15°C 7°C
23/04/19 13:20 EGNM 231220Z 06010KT 030V090 CAVOK 14/07 Q1000 ENE (60°) 11.5mph 14°C 7°C
23/04/19 12:50 EGNM 231150Z 06011KT 010V100 CAVOK 14/07 Q1000 ENE (60°) 12.7mph 14°C 7°C
23/04/19 12:20 EGNM 231120Z 06010KT 010V110 CAVOK 13/08 Q1000 ENE (60°) 11.5mph 13°C 8°C
23/04/19 11:50 EGNM 231050Z 07010KT 010V100 CAVOK 12/07 Q1001 ENE (70°) 11.5mph 12°C 7°C
23/04/19 11:20 EGNM 231020Z 07008KT 010V160 CAVOK 12/07 Q1001 ENE (70°) 9.2mph 12°C 7°C
23/04/19 10:50 EGNM 230950Z 06009KT 010V090 CAVOK 11/07 Q1001 ENE (60°) 10.4mph 11°C 7°C
23/04/19 10:20 EGNM 230920Z 06009KT 010V100 CAVOK 11/07 Q1001 ENE (60°) 10.4mph 11°C 7°C
23/04/19 09:50 EGNM 230850Z 06007KT 030V110 CAVOK 10/07 Q1001 ENE (60°) 8.1mph 10°C 7°C
23/04/19 09:20 EGNM 230820Z 06006KT 020V110 CAVOK 10/07 Q1001 ENE (60°) 6.9mph 10°C 7°C
23/04/19 08:50 EGNM 230750Z 06008KT 020V090 CAVOK 10/07 Q1001 ENE (60°) 9.2mph 10°C 7°C
23/04/19 07:50 EGNM 230650Z 05007KT 010V080 CAVOK 08/06 Q1001 NE (50°) 8.1mph 8°C 6°C
23/04/19 07:20 EGNM 230620Z 04008KT CAVOK 08/06 Q1001 NE (40°) 9.2mph 8°C 6°C
23/04/19 06:50 EGNM 230550Z 04007KT 360V070 CAVOK 08/06 Q1001 NE (40°) 8.1mph 8°C 6°C
23/04/19 06:20 EGNM 230520Z 04006KT 020V090 CAVOK 08/06 Q1001 NE (40°) 6.9mph 8°C 6°C
23/04/19 05:50 EGNM 230450Z 03006KT CAVOK 08/06 Q1001 NNE (30°) 6.9mph 8°C 6°C
23/04/19 05:20 EGNM 230420Z 03006KT CAVOK 08/05 Q1001 NNE (30°) 6.9mph 8°C 5°C
23/04/19 04:50 EGNM 230350Z 04006KT CAVOK 09/05 Q1001 NE (40°) 6.9mph 9°C 5°C
23/04/19 04:20 EGNM 230320Z 04006KT CAVOK 09/05 Q1002 NE (40°) 6.9mph 9°C 5°C
23/04/19 03:50 EGNM 230250Z 03004KT CAVOK 09/05 Q1002 NNE (30°) 4.6mph 9°C 5°C
23/04/19 03:20 EGNM 230220Z 03005KT CAVOK 09/06 Q1002 NNE (30°) 5.8mph 9°C 6°C
23/04/19 02:50 EGNM 230150Z 05007KT CAVOK 10/06 Q1002 NE (50°) 8.1mph 10°C 6°C
23/04/19 02:20 EGNM 230120Z 06005KT CAVOK 10/06 Q1002 ENE (60°) 5.8mph 10°C 6°C
23/04/19 01:50 EGNM 230050Z 06005KT CAVOK 10/06 Q1003 ENE (60°) 5.8mph 10°C 6°C
23/04/19 01:20 EGNM 230020Z 06005KT CAVOK 10/06 Q1003 ENE (60°) 5.8mph 10°C 6°C
23/04/19 00:50 EGNM 222350Z 04004KT 010V070 CAVOK 11/06 Q1003 NE (40°) 4.6mph 11°C 6°C
23/04/19 00:20 EGNM 222320Z 05007KT CAVOK 11/06 Q1003 NE (50°) 8.1mph 11°C 6°C
22/04/19 23:50 EGNM 222250Z 06006KT CAVOK 11/05 Q1003 ENE (60°) 6.9mph 11°C 5°C
22/04/19 23:20 EGNM 222220Z 06007KT 030V100 CAVOK 11/05 Q1003 ENE (60°) 8.1mph 11°C 5°C
22/04/19 22:50 EGNM 222150Z 07007KT 010V110 CAVOK 11/06 Q1003 ENE (70°) 8.1mph 11°C 6°C
22/04/19 22:20 EGNM 222120Z 07008KT CAVOK 11/06 Q1004 ENE (70°) 9.2mph 11°C 6°C
22/04/19 21:50 EGNM 222050Z 07006KT 010V090 CAVOK 11/05 Q1004 ENE (70°) 6.9mph 11°C 5°C
22/04/19 21:20 EGNM 222020Z 07007KT 010V090 CAVOK 12/05 Q1004 ENE (70°) 8.1mph 12°C 5°C
22/04/19 20:50 EGNM 221950Z 08007KT 010V160 CAVOK 13/06 Q1004 E (80°) 8.1mph 13°C 6°C
22/04/19 20:20 EGNM 221920Z 08006KT 010V170 CAVOK 14/06 Q1004 E (80°) 6.9mph 14°C 6°C
22/04/19 19:20 EGNM 221820Z 07006KT 010V150 CAVOK 16/06 Q1004 ENE (70°) 6.9mph 16°C 6°C
22/04/19 18:50 EGNM 221750Z 10013KT 010V140 CAVOK 17/03 Q1004 E (100°) 15.0mph 17°C 3°C
22/04/19 18:20 EGNM 221720Z 11013KT 090V160 CAVOK 18/04 Q1004 ESE (110°) 15.0mph 18°C 4°C
22/04/19 17:20 EGNM 221620Z 09011KT 010V170 CAVOK 19/05 Q1004 E (90°) 12.7mph 19°C 5°C
22/04/19 16:50 EGNM 221550Z 10014KT 080V160 CAVOK 19/05 Q1004 E (100°) 16.1mph 19°C 5°C
22/04/19 16:20 EGNM 221520Z 10014KT 010V160 CAVOK 19/06 Q1005 E (100°) 16.1mph 19°C 6°C
22/04/19 15:50 EGNM 221450Z 11011KT 010V160 CAVOK 20/08 Q1005 ESE (110°) 12.7mph 20°C 8°C
22/04/19 15:20 EGNM 221420Z 11011KT 090V160 CAVOK 19/07 Q1005 ESE (110°) 12.7mph 19°C 7°C
22/04/19 14:50 EGNM 221350Z 10011KT 010V160 CAVOK 19/07 Q1006 E (100°) 12.7mph 19°C 7°C
22/04/19 14:20 EGNM 221320Z 11008KT 080V160 CAVOK 20/05 Q1006 ESE (110°) 9.2mph 20°C 5°C
22/04/19 13:50 EGNM 221250Z 13007KT 010V170 CAVOK 19/05 Q1007 SE (130°) 8.1mph 19°C 5°C
22/04/19 13:20 EGNM 221220Z 11007KT 070V160 CAVOK 18/04 Q1007 ESE (110°) 8.1mph 18°C 4°C
22/04/19 12:20 EGNM 221120Z 12010KT CAVOK 17/03 Q1008 ESE (120°) 11.5mph 17°C 3°C
22/04/19 11:50 EGNM 221050Z 14012KT CAVOK 17/02 Q1008 SE (140°) 13.8mph 17°C 2°C
22/04/19 11:20 EGNM 221020Z 12010KT CAVOK 16/00 Q1008 ESE (120°) 11.5mph 16°C 0°C
22/04/19 10:50 EGNM 220950Z 12009KT CAVOK 15/00 Q1008 ESE (120°) 10.4mph 15°C 0°C
22/04/19 10:20 EGNM 220920Z 10007KT 070V160 CAVOK 14/04 Q1009 E (100°) 8.1mph 14°C 4°C
22/04/19 09:50 EGNM 220850Z 10005KT 060V160 CAVOK 13/05 Q1009 E (100°) 5.8mph 13°C 5°C
22/04/19 09:20 EGNM 220820Z 09005KT 060V160 CAVOK 11/06 Q1009 E (90°) 5.8mph 11°C 6°C
22/04/19 08:50 EGNM 220750Z 07006KT 010V110 CAVOK 09/06 Q1009 ENE (70°) 6.9mph 9°C 6°C
22/04/19 08:20 EGNM 220720Z 07005KT 010V100 CAVOK 09/05 Q1009 ENE (70°) 5.8mph 9°C 5°C
22/04/19 07:20 EGNM 220620Z 07005KT 010V090 CAVOK 08/05 Q1010 ENE (70°) 5.8mph 8°C 5°C
22/04/19 06:50 EGNM 220550Z 09004KT 010V160 CAVOK 08/04 Q1010 E (90°) 4.6mph 8°C 4°C
22/04/19 06:20 EGNM 220520Z 09005KT 070V160 CAVOK 08/04 Q1010 E (90°) 5.8mph 8°C 4°C
22/04/19 05:50 EGNM 220450Z 10003KT CAVOK 09/04 Q1010 E (100°) 3.5mph 9°C 4°C
22/04/19 05:20 EGNM 220420Z 11003KT CAVOK 08/04 Q1010 ESE (110°) 3.5mph 8°C 4°C
22/04/19 04:50 EGNM 220350Z 13004KT CAVOK 09/04 Q1010 SE (130°) 4.6mph 9°C 4°C
22/04/19 04:20 EGNM 220320Z 14005KT CAVOK 09/04 Q1011 SE (140°) 5.8mph 9°C 4°C
22/04/19 03:50 EGNM 220250Z 16006KT CAVOK 10/04 Q1011 SSE (160°) 6.9mph 10°C 4°C
22/04/19 03:20 EGNM 220220Z 14005KT CAVOK 10/05 Q1011 SE (140°) 5.8mph 10°C 5°C
22/04/19 01:50 EGNM 220050Z 11004KT CAVOK 10/05 Q1012 ESE (110°) 4.6mph 10°C 5°C
22/04/19 01:20 EGNM 220020Z 11005KT CAVOK 10/05 Q1012 ESE (110°) 5.8mph 10°C 5°C
22/04/19 00:50 EGNM 212350Z 00000KT CAVOK 11/06 Q1013 N (0°) 11°C 6°C
22/04/19 00:20 EGNM 212320Z 16005KT CAVOK 11/06 Q1013 SSE (160°) 5.8mph 11°C 6°C
21/04/19 23:50 EGNM 212250Z 14005KT CAVOK 12/06 Q1013 SE (140°) 5.8mph 12°C 6°C
21/04/19 23:20 EGNM 212220Z 15005KT CAVOK 13/06 Q1013 SSE (150°) 5.8mph 13°C 6°C
21/04/19 22:20 EGNM 212120Z 14007KT CAVOK 12/06 Q1014 SE (140°) 8.1mph 12°C 6°C
21/04/19 21:50 EGNM 212050Z 14009KT CAVOK 13/07 Q1014 SE (140°) 10.4mph 13°C 7°C
21/04/19 21:20 EGNM 212020Z 13007KT CAVOK 13/06 Q1014 SE (130°) 8.1mph 13°C 6°C
21/04/19 20:50 EGNM 211950Z 13007KT CAVOK 15/05 Q1014 SE (130°) 8.1mph 15°C 5°C
21/04/19 20:20 EGNM 211920Z 15005KT CAVOK 17/03 Q1014 SSE (150°) 5.8mph 17°C 3°C
21/04/19 19:50 EGNM 211850Z 17006KT CAVOK 18/03 Q1014 S (170°) 6.9mph 18°C 3°C
21/04/19 19:20 EGNM 211820Z 17007KT CAVOK 19/03 Q1014 S (170°) 8.1mph 19°C 3°C
21/04/19 18:50 EGNM 211750Z 16008KT 130V200 CAVOK 20/03 Q1015 SSE (160°) 9.2mph 20°C 3°C
21/04/19 18:20 EGNM 211720Z 17008KT 140V200 CAVOK 21/03 Q1015 S (170°) 9.2mph 21°C 3°C
21/04/19 17:50 EGNM 211650Z 16008KT 130V210 CAVOK 21/03 Q1015 SSE (160°) 9.2mph 21°C 3°C
21/04/19 17:20 EGNM 211620Z 16009KT 120V200 CAVOK 21/03 Q1016 SSE (160°) 10.4mph 21°C 3°C
21/04/19 16:50 EGNM 211550Z 16008KT 120V200 CAVOK 21/04 Q1016 SSE (160°) 9.2mph 21°C 4°C
21/04/19 16:20 EGNM 211520Z 17009KT 130V220 CAVOK 21/03 Q1017 S (170°) 10.4mph 21°C 3°C
21/04/19 15:50 EGNM 211450Z 16009KT 120V220 CAVOK 21/03 Q1017 SSE (160°) 10.4mph 21°C 3°C
21/04/19 15:20 EGNM 211420Z 17008KT 090V220 CAVOK 21/04 Q1017 S (170°) 9.2mph 21°C 4°C
21/04/19 14:50 EGNM 211350Z 16007KT 110V220 CAVOK 21/03 Q1018 SSE (160°) 8.1mph 21°C 3°C
21/04/19 14:20 EGNM 211320Z 17008KT 110V230 CAVOK 21/03 Q1018 S (170°) 9.2mph 21°C 3°C
21/04/19 13:50 EGNM 211250Z 16008KT 130V210 CAVOK 21/04 Q1018 SSE (160°) 9.2mph 21°C 4°C